PHLI METAR and TAF | Updated Today

PHLI METAR

Lihue Airport

Observation time: 12 min. ago

PHLI 292053Z 06009KT 10SM FEW025 29/21 A3010 RMK AO2 SLP189 T02890211 50005

Need help? Read our tutorial on how to read METARs or read the parsed version below.

Lihue Airport (PHLI) METAR

  • Weather conditions on Thu, 29 Sep 2022 20:53:00 +0000 (12 min. ago):
  • Present conditions: Dry
  • Clouds: A few at 762 meters
  • Visibility: 16093 meters
  • Wind: 60 degrees at 9 knots
  • Temperature: 29 celsius
  • Dew point: 21 celsius
  • Pressure: 30.1 inHg
  • Remarks: AO2 SLP189 T02890211 50005


Useful to know...

PHLI TAF

Lihue Airport

PHLI 291724Z 2918/3018 05011KT P6SM SCT020 SCT035
Observation time: 3:41 hr. ago
Need help? Read our tutorial on how to read TAFs or read the parsed version below.

Parsed version of TAF for Lihue Airport (PHLI)

  • From 29 September at 18:00 UTC, to day 30 of the month at 18:00 UTC
  • Clouds: Scattered at 610 meters; scattered at 1067 meters
  • Wind: 50 degrees at 11